Time;durP1;ratioP1;P1;durP2;ratioP2;P2;SDS_P1;SDS_P2;PMS_P1;PMS_P2;Temp;Humidity;BMP_temperature;BMP_pressure;BME280_temperature;BME280_humidity;BME280_pressure;Samples;Min_cycle;Max_cycle;Signal;HPM_P1;HPM_P2
2023/07/03 00:00:20;;;;;;;15.67;7.97;;;14.10;70.00;;;;;;4988483;28;20212;-67
2023/07/03 00:02:51;;;;;;;22.77;7.40;;;14.20;70.10;;;;;;4989530;28;20664;-66
2023/07/03 00:05:19;;;;;;;15.27;8.20;;;14.30;69.40;;;;;;4988767;28;20190;-70
2023/07/03 00:07:46;;;;;;;16.20;7.73;;;14.50;69.50;;;;;;4993465;28;20233;-66
2023/07/03 00:10:14;;;;;;;14.67;7.63;;;14.70;69.00;;;;;;4989881;28;20201;-67
2023/07/03 00:12:42;;;;;;;19.43;7.83;;;14.70;68.90;;;;;;4986240;28;20199;-66
2023/07/03 00:15:11;;;;;;;13.00;7.17;;;14.80;68.40;;;;;;4990788;28;20181;-65
2023/07/03 00:17:38;;;;;;;15.27;7.43;;;14.90;68.00;;;;;;4990004;28;20202;-67
2023/07/03 00:20:07;;;;;;;17.43;7.57;;;15.00;67.70;;;;;;4990023;28;20196;-67
2023/07/03 00:22:34;;;;;;;15.87;7.20;;;15.00;67.80;;;;;;4992214;28;20189;-67
2023/07/03 00:25:02;;;;;;;18.53;7.30;;;15.20;67.90;;;;;;4988889;28;20837;-67
2023/07/03 00:27:29;;;;;;;18.57;7.33;;;15.20;67.20;;;;;;4990321;28;20229;-66
2023/07/03 00:29:56;;;;;;;17.20;7.73;;;15.30;67.30;;;;;;4990017;28;20190;-67
2023/07/03 00:32:24;;;;;;;18.10;7.93;;;15.10;67.70;;;;;;4989351;28;20252;-66
2023/07/03 00:34:51;;;;;;;14.87;7.37;;;15.30;67.40;;;;;;4990688;28;20692;-68
2023/07/03 00:37:18;;;;;;;16.57;7.00;;;15.40;67.50;;;;;;4991939;28;20186;-67
2023/07/03 00:39:46;;;;;;;12.87;6.93;;;15.50;67.40;;;;;;4989772;28;20198;-68
2023/07/03 00:42:13;;;;;;;13.87;6.70;;;15.60;67.30;;;;;;4989449;28;20210;-67
2023/07/03 00:44:40;;;;;;;15.30;7.03;;;15.70;66.40;;;;;;4989464;28;20181;-70
2023/07/03 00:47:10;;;;;;;15.47;7.07;;;15.80;66.40;;;;;;4987894;28;20221;-67
2023/07/03 00:49:38;;;;;;;16.63;6.20;;;16.00;66.30;;;;;;4991477;28;20191;-66
2023/07/03 00:52:05;;;;;;;11.63;5.43;;;16.30;65.90;;;;;;4987860;28;20283;-66
2023/07/03 00:54:33;;;;;;;15.87;6.07;;;16.50;65.30;;;;;;4992024;28;20267;-66
2023/07/03 00:57:00;;;;;;;11.27;5.40;;;16.50;65.60;;;;;;4991499;28;20694;-66
2023/07/03 00:59:27;;;;;;;15.63;5.43;;;16.60;64.40;;;;;;4992173;28;20244;-66
2023/07/03 01:02:00;;;;;;;14.17;5.00;;;16.70;64.90;;;;;;4992634;28;20191;-67
2023/07/03 01:04:54;;;;;;;17.00;5.73;;;16.80;64.50;;;;;;4990244;28;20185;-67
2023/07/03 01:07:29;;;;;;;11.13;5.23;;;16.80;64.50;;;;;;4988518;28;20223;-66
2023/07/03 01:10:23;;;;;;;10.53;5.30;;;16.90;65.00;;;;;;4991783;28;20275;-66
2023/07/03 01:12:56;;;;;;;12.70;5.90;;;17.10;63.40;;;;;;4988510;28;20211;-65
2023/07/03 01:15:28;;;;;;;19.90;6.03;;;17.10;63.20;;;;;;4992665;28;20215;-66
2023/07/03 01:17:58;;;;;;;14.83;6.83;;;17.20;63.10;;;;;;4991302;28;20185;-67
2023/07/03 01:20:31;;;;;;;17.93;5.53;;;17.30;63.20;;;;;;4988159;28;20192;-66
2023/07/03 01:23:28;;;;;;;13.83;5.90;;;17.20;62.70;;;;;;4988421;28;20201;-66
2023/07/03 01:25:57;;;;;;;14.50;6.23;;;16.90;63.30;;;;;;4981511;28;20236;-67
2023/07/03 01:28:26;;;;;;;14.10;5.87;;;17.00;63.40;;;;;;4983149;28;20179;-66
2023/07/03 01:30:55;;;;;;;11.70;5.40;;;17.10;63.40;;;;;;4988913;28;20195;-67
2023/07/03 01:33:33;;;;;;;18.67;6.87;;;17.10;63.60;;;;;;4991807;28;20201;-65
2023/07/03 01:36:01;;;;;;;13.60;6.10;;;17.10;63.80;;;;;;4983148;28;20637;-66
2023/07/03 01:38:29;;;;;;;11.50;5.57;;;17.00;63.70;;;;;;4991321;28;20190;-66
2023/07/03 01:40:59;;;;;;;9.93;5.30;;;17.10;64.00;;;;;;4987529;28;20546;-67
2023/07/03 01:43:27;;;;;;;13.93;5.90;;;17.40;63.40;;;;;;4986990;28;20553;-67
2023/07/03 01:45:54;;;;;;;13.20;5.60;;;17.50;62.70;;;;;;4988778;28;20214;-66
2023/07/03 01:48:22;;;;;;;18.87;7.23;;;17.40;62.90;;;;;;4991402;28;20226;-67
2023/07/03 01:50:49;;;;;;;14.17;6.67;;;17.60;61.80;;;;;;4987658;28;20276;-66
2023/07/03 01:53:27;;;;;;;16.93;6.83;;;17.30;61.40;;;;;;4990212;28;20652;-66
2023/07/03 01:56:17;;;;;;;16.67;6.63;;;17.20;61.90;;;;;;4990330;28;20280;-66
2023/07/03 01:58:50;;;;;;;15.33;6.60;;;17.30;62.40;;;;;;4982263;28;20575;-71
2023/07/03 02:01:26;;;;;;;15.00;6.07;;;17.30;62.70;;;;;;4991431;28;20271;-69
2023/07/03 02:04:06;;;;;;;12.80;6.37;;;17.60;62.10;;;;;;4987751;28;20206;-70
2023/07/03 02:06:43;;;;;;;15.33;6.80;;;17.80;61.50;;;;;;4987545;28;20217;-68
2023/07/03 02:09:11;;;;;;;12.97;5.40;;;18.10;60.40;;;;;;4989608;28;20186;-69
2023/07/03 02:11:39;;;;;;;15.23;5.93;;;18.50;60.40;;;;;;4990915;28;20284;-72
2023/07/03 02:14:08;;;;;;;16.50;6.13;;;18.30;60.00;;;;;;4989105;28;20539;-69
2023/07/03 02:16:35;;;;;;;15.43;5.80;;;18.40;60.20;;;;;;4988004;28;20271;-66
2023/07/03 02:19:03;;;;;;;20.67;6.17;;;18.80;59.40;;;;;;4989408;28;20265;-69
2023/07/03 02:21:30;;;;;;;17.53;5.93;;;18.80;59.00;;;;;;4988292;28;20711;-66
2023/07/03 02:23:58;;;;;;;16.57;5.40;;;18.90;58.40;;;;;;4985896;28;20190;-69
2023/07/03 02:26:25;;;;;;;17.03;4.93;;;19.00;59.00;;;;;;4988937;28;20308;-66
2023/07/03 02:28:52;;;;;;;9.60;3.73;;;19.20;59.80;;;;;;4990873;28;20243;-66
2023/07/03 02:31:19;;;;;;;9.33;3.87;;;19.30;60.20;;;;;;4990134;28;20241;-65
2023/07/03 02:33:47;;;;;;;13.03;3.47;;;19.60;60.50;;;;;;4988720;28;20286;-65
2023/07/03 02:36:14;;;;;;;8.87;3.37;;;19.50;60.60;;;;;;4989889;28;20564;-65
2023/07/03 02:38:41;;;;;;;13.20;3.90;;;19.70;60.20;;;;;;4989877;28;20186;-66
2023/07/03 02:41:09;;;;;;;13.33;3.33;;;19.50;60.80;;;;;;4990296;28;20322;-66
2023/07/03 02:43:36;;;;;;;14.57;3.50;;;19.20;61.80;;;;;;4986516;28;20194;-67
2023/07/03 02:46:08;;;;;;;12.23;3.90;;;19.10;62.20;;;;;;4985316;28;20214;-65
2023/07/03 02:48:36;;;;;;;13.93;4.00;;;19.20;61.70;;;;;;4989745;28;20329;-66
2023/07/03 02:51:03;;;;;;;7.63;3.63;;;19.30;61.50;;;;;;4990261;28;20194;-67
2023/07/03 02:53:31;;;;;;;7.03;3.20;;;19.50;61.70;;;;;;4988788;28;20660;-66
2023/07/03 02:55:58;;;;;;;14.23;3.57;;;20.00;59.60;;;;;;4991332;28;20273;-65
2023/07/03 02:58:26;;;;;;;6.87;3.30;;;19.90;59.40;;;;;;4987105;28;20545;-65
2023/07/03 03:00:54;;;;;;;10.53;3.43;;;20.00;58.70;;;;;;4991219;28;20181;-66
2023/07/03 03:03:22;;;;;;;12.13;3.53;;;20.20;59.00;;;;;;4989631;28;20593;-66
2023/07/03 03:05:49;;;;;;;11.60;4.07;;;20.20;58.20;;;;;;4991027;28;20611;-66
2023/07/03 03:08:16;;;;;;;12.87;3.40;;;19.90;58.80;;;;;;4987740;28;20186;-66
2023/07/03 03:10:44;;;;;;;11.37;3.53;;;19.90;59.60;;;;;;4990357;28;20604;-67
2023/07/03 03:13:11;;;;;;;8.57;3.20;;;19.90;59.30;;;;;;4990501;28;20282;-66
2023/07/03 03:15:39;;;;;;;7.27;3.40;;;20.10;58.60;;;;;;4991251;28;20193;-65
2023/07/03 03:18:06;;;;;;;9.23;3.77;;;19.70;60.80;;;;;;4989234;28;20190;-66
2023/07/03 03:20:34;;;;;;;12.63;3.57;;;20.00;59.30;;;;;;4990347;28;20190;-66
2023/07/03 03:23:01;;;;;;;12.40;3.40;;;20.10;59.10;;;;;;4988939;28;20187;-66
2023/07/03 03:25:29;;;;;;;10.47;3.33;;;20.20;58.00;;;;;;4990614;28;20280;-65
2023/07/03 03:27:57;;;;;;;11.80;3.13;;;19.60;60.00;;;;;;4985629;28;20602;-66
2023/07/03 03:30:24;;;;;;;13.23;3.47;;;19.70;60.50;;;;;;4988606;28;20261;-65
2023/07/03 03:32:51;;;;;;;6.23;2.60;;;19.60;60.40;;;;;;4989196;28;20186;-66
2023/07/03 03:35:19;;;;;;;8.57;3.03;;;19.50;60.50;;;;;;4984560;28;20174;-66
2023/07/03 03:37:46;;;;;;;13.30;3.30;;;19.40;60.90;;;;;;4988859;28;20194;-66
2023/07/03 03:40:14;;;;;;;9.77;2.87;;;19.40;60.90;;;;;;4992233;28;20190;-65
2023/07/03 03:42:41;;;;;;;11.80;3.20;;;19.50;60.10;;;;;;4992460;28;20517;-66
2023/07/03 03:45:09;;;;;;;7.20;2.97;;;19.50;59.80;;;;;;4991397;28;20277;-66
2023/07/03 03:47:36;;;;;;;13.13;2.97;;;19.30;60.70;;;;;;4991112;28;20292;-67
2023/07/03 03:50:04;;;;;;;8.70;3.00;;;19.30;60.50;;;;;;4992508;28;20661;-66
2023/07/03 03:52:31;;;;;;;9.13;2.50;;;19.30;60.40;;;;;;4989078;28;20712;-67
2023/07/03 03:54:58;;;;;;;11.10;3.23;;;19.20;61.20;;;;;;4998529;28;20276;-66
2023/07/03 03:57:26;;;;;;;8.07;3.00;;;19.20;61.00;;;;;;4992930;28;20270;-66
2023/07/03 03:59:53;;;;;;;8.00;3.50;;;19.10;60.70;;;;;;4974982;28;20719;-66
2023/07/03 04:02:20;;;;;;;10.77;2.77;;;19.10;61.10;;;;;;4995090;28;20196;-68
2023/07/03 04:04:48;;;;;;;7.67;2.87;;;19.10;61.30;;;;;;4996770;28;20868;-66
2023/07/03 04:07:15;;;;;;;8.53;2.90;;;19.30;60.80;;;;;;4990155;28;20281;-66
2023/07/03 04:09:42;;;;;;;13.73;3.07;;;19.30;60.00;;;;;;4990333;28;20728;-66
2023/07/03 04:12:10;;;;;;;10.63;3.07;;;19.70;59.40;;;;;;4993263;28;20215;-67
2023/07/03 04:14:38;;;;;;;15.20;3.17;;;20.00;58.50;;;;;;4989854;28;20649;-66
2023/07/03 04:17:08;;;;;;;10.93;2.63;;;20.10;58.40;;;;;;4995570;28;20205;-66
2023/07/03 04:19:36;;;;;;;14.43;3.47;;;20.00;57.70;;;;;;4993686;28;20557;-66
2023/07/03 04:22:03;;;;;;;11.00;2.77;;;19.70;58.90;;;;;;4991728;28;20192;-66
2023/07/03 04:24:31;;;;;;;10.37;3.40;;;19.80;58.80;;;;;;4995282;28;20170;-66
2023/07/03 04:26:58;;;;;;;10.10;3.10;;;20.00;59.30;;;;;;4992883;28;20209;-66
2023/07/03 04:29:26;;;;;;;9.77;3.57;;;20.10;59.30;;;;;;4994360;28;20332;-65
2023/07/03 04:31:53;;;;;;;10.57;3.50;;;19.80;62.30;;;;;;4992219;28;20667;-67
2023/07/03 04:34:21;;;;;;;11.60;3.73;;;19.40;64.40;;;;;;4992683;28;20186;-65
2023/07/03 04:36:48;;;;;;;14.17;3.93;;;19.20;65.70;;;;;;4990192;28;20194;-66
2023/07/03 04:39:16;;;;;;;11.37;3.13;;;18.90;67.10;;;;;;4992196;28;20582;-65
2023/07/03 04:41:43;;;;;;;14.03;3.83;;;18.80;68.00;;;;;;4993333;28;20190;-66
2023/07/03 04:44:12;;;;;;;16.03;3.33;;;18.70;68.90;;;;;;4993105;28;20186;-65
2023/07/03 04:46:40;;;;;;;10.47;3.57;;;18.40;69.90;;;;;;4993233;28;20246;-66
2023/07/03 04:49:08;;;;;;;12.93;3.30;;;18.30;70.90;;;;;;4991762;28;20233;-65
2023/07/03 04:51:36;;;;;;;14.70;3.20;;;18.40;70.30;;;;;;4986975;28;20227;-65
2023/07/03 04:54:04;;;;;;;8.60;2.80;;;18.30;70.80;;;;;;4992674;28;20174;-66
2023/07/03 04:56:34;;;;;;;8.30;3.00;;;18.10;70.30;;;;;;4994210;28;20186;-65
2023/07/03 04:59:01;;;;;;;10.03;2.67;;;18.00;71.40;;;;;;4990548;28;20189;-66
2023/07/03 05:01:29;;;;;;;11.90;3.30;;;18.10;71.90;;;;;;4991595;28;20202;-65
2023/07/03 05:03:57;;;;;;;9.20;2.50;;;18.00;71.50;;;;;;4991763;28;20207;-65
2023/07/03 05:06:25;;;;;;;8.93;3.30;;;17.90;71.90;;;;;;4995422;28;20217;-65
2023/07/03 05:08:53;;;;;;;9.03;2.87;;;17.90;72.70;;;;;;4989661;28;20679;-65
2023/07/03 05:11:20;;;;;;;7.43;2.77;;;17.90;72.60;;;;;;4988842;28;20236;-66
2023/07/03 05:13:47;;;;;;;7.63;2.50;;;17.80;72.50;;;;;;4990530;28;20278;-65
2023/07/03 05:16:15;;;;;;;16.37;3.53;;;17.70;73.60;;;;;;4994057;28;20641;-65
2023/07/03 05:18:42;;;;;;;9.40;3.00;;;17.70;73.80;;;;;;4989154;28;20193;-65
2023/07/03 05:21:10;;;;;;;9.70;3.07;;;17.80;73.30;;;;;;4993832;28;20276;-66
2023/07/03 05:23:38;;;;;;;12.20;2.93;;;17.90;72.90;;;;;;4991942;28;20190;-66
2023/07/03 05:26:06;;;;;;;10.07;3.00;;;17.90;73.40;;;;;;4990923;28;20275;-66
2023/07/03 05:28:34;;;;;;;8.30;3.23;;;17.80;73.60;;;;;;4987288;28;20280;-65
2023/07/03 05:31:02;;;;;;;14.93;3.50;;;17.60;74.40;;;;;;4989208;28;20264;-66
2023/07/03 05:33:30;;;;;;;12.87;3.23;;;17.50;74.80;;;;;;4987589;28;20191;-68
2023/07/03 05:36:00;;;;;;;8.60;2.80;;;17.50;75.30;;;;;;4992265;28;20251;-67
2023/07/03 05:38:28;;;;;;;13.00;3.13;;;17.50;74.90;;;;;;4989800;28;20177;-65
2023/07/03 05:40:56;;;;;;;12.37;3.00;;;17.60;74.80;;;;;;4990807;28;20547;-66
2023/07/03 05:43:25;;;;;;;11.30;3.10;;;17.50;74.10;;;;;;4987922;28;20183;-66
2023/07/03 05:45:53;;;;;;;9.03;2.67;;;17.40;74.40;;;;;;4988396;28;20208;-66
2023/07/03 05:48:20;;;;;;;10.40;3.30;;;17.40;74.30;;;;;;4990546;28;20237;-65
2023/07/03 05:50:47;;;;;;;8.33;2.50;;;17.50;74.40;;;;;;4990088;28;20190;-66
2023/07/03 05:53:15;;;;;;;7.63;2.73;;;17.80;73.60;;;;;;4989618;28;20205;-66
2023/07/03 05:55:43;;;;;;;8.13;2.57;;;17.90;72.00;;;;;;4990101;28;20230;-65
2023/07/03 05:58:11;;;;;;;11.43;2.77;;;17.80;72.10;;;;;;4989311;28;20194;-66
2023/07/03 06:00:38;;;;;;;13.43;3.20;;;17.50;73.20;;;;;;4988557;28;20196;-66
2023/07/03 06:03:06;;;;;;;11.17;3.20;;;17.40;73.60;;;;;;4990699;28;20194;-66
2023/07/03 06:05:33;;;;;;;13.40;3.17;;;17.30;73.90;;;;;;4988683;28;20214;-66
2023/07/03 06:08:00;;;;;;;10.13;2.67;;;17.30;74.70;;;;;;4991049;28;20198;-66
2023/07/03 06:10:28;;;;;;;10.10;3.33;;;17.20;74.80;;;;;;4989704;28;20544;-66
2023/07/03 06:12:55;;;;;;;9.33;2.70;;;17.10;75.40;;;;;;4990706;28;20197;-65
2023/07/03 06:15:22;;;;;;;13.30;3.10;;;17.00;75.70;;;;;;4986744;28;20190;-65
2023/07/03 06:17:50;;;;;;;14.50;3.37;;;17.00;76.00;;;;;;4991499;28;20550;-67
2023/07/03 06:20:17;;;;;;;15.13;4.17;;;17.10;76.20;;;;;;4992893;28;20192;-65
2023/07/03 06:22:44;;;;;;;8.13;3.60;;;17.10;76.30;;;;;;4990449;28;20200;-68
2023/07/03 06:25:12;;;;;;;9.60;3.13;;;17.00;76.40;;;;;;4989824;28;20189;-67
2023/07/03 06:27:39;;;;;;;10.47;3.27;;;16.90;76.70;;;;;;4990465;28;20255;-65
2023/07/03 06:30:08;;;;;;;14.37;3.97;;;16.90;77.10;;;;;;4989101;28;20788;-64
2023/07/03 06:32:36;;;;;;;10.63;3.30;;;16.80;77.50;;;;;;4985027;28;20643;-68
2023/07/03 06:35:03;;;;;;;8.13;3.23;;;16.80;78.10;;;;;;4988040;28;20196;-66
2023/07/03 06:37:30;;;;;;;13.03;3.50;;;16.80;79.00;;;;;;4989810;28;20714;-68
2023/07/03 06:39:58;;;;;;;8.50;3.57;;;16.70;80.20;;;;;;4988169;28;20221;-67
2023/07/03 06:42:26;;;;;;;14.13;3.10;;;16.60;80.90;;;;;;4990000;28;20248;-67
2023/07/03 06:44:53;;;;;;;8.50;3.33;;;16.60;81.50;;;;;;4990131;28;20201;-66
2023/07/03 06:47:20;;;;;;;7.00;2.90;;;16.50;81.80;;;;;;4982930;28;20249;-66
2023/07/03 06:49:48;;;;;;;7.03;2.80;;;16.40;82.10;;;;;;4990442;28;20209;-67
2023/07/03 06:52:15;;;;;;;14.63;3.60;;;16.30;82.20;;;;;;4989610;28;20185;-66
2023/07/03 06:54:42;;;;;;;9.53;3.20;;;16.30;82.40;;;;;;4989317;28;20541;-66
2023/07/03 06:57:10;;;;;;;10.23;3.33;;;16.40;82.60;;;;;;4991349;28;20189;-67
2023/07/03 06:59:37;;;;;;;12.10;3.33;;;16.30;82.50;;;;;;4990599;28;20197;-67
2023/07/03 07:02:06;;;;;;;11.90;4.00;;;16.30;82.50;;;;;;4987394;28;20188;-67
2023/07/03 07:04:33;;;;;;;10.63;3.57;;;16.30;82.50;;;;;;4989880;28;20193;-68
2023/07/03 07:07:00;;;;;;;8.70;3.23;;;16.30;82.40;;;;;;4988967;28;20223;-67
2023/07/03 07:09:28;;;;;;;11.37;3.53;;;16.30;82.40;;;;;;4988538;28;20203;-67
2023/07/03 07:11:55;;;;;;;7.60;3.13;;;16.30;82.30;;;;;;4986608;28;20181;-67
2023/07/03 07:14:22;;;;;;;9.90;3.40;;;16.30;82.10;;;;;;4991131;28;20268;-67
2023/07/03 07:16:50;;;;;;;10.20;3.30;;;16.30;81.90;;;;;;4990745;28;20720;-66
2023/07/03 07:19:17;;;;;;;13.83;3.53;;;16.30;81.90;;;;;;4992563;28;20211;-67
2023/07/03 07:21:45;;;;;;;14.00;4.00;;;16.30;81.80;;;;;;4991717;28;20188;-67
2023/07/03 07:24:21;;;;;;;12.63;3.80;;;16.30;81.70;;;;;;4991656;28;20185;-66
2023/07/03 07:26:50;;;;;;;10.40;3.57;;;16.30;81.70;;;;;;4993059;28;20337;-67
2023/07/03 07:29:17;;;;;;;10.80;3.47;;;16.30;81.50;;;;;;4992960;28;20193;-66
2023/07/03 07:31:45;;;;;;;11.17;3.53;;;16.30;81.40;;;;;;4995328;28;20235;-66
2023/07/03 07:34:12;;;;;;;12.80;3.43;;;16.20;81.20;;;;;;4992383;28;20204;-67
2023/07/03 07:36:40;;;;;;;7.97;2.83;;;16.20;80.80;;;;;;4992921;28;20190;-66
2023/07/03 07:39:08;;;;;;;7.90;2.60;;;16.20;80.60;;;;;;4991286;28;20215;-67
2023/07/03 07:41:36;;;;;;;6.93;2.87;;;16.20;80.30;;;;;;4988409;28;20184;-66
2023/07/03 07:44:04;;;;;;;8.93;2.10;;;16.10;80.30;;;;;;4989309;28;20174;-66
2023/07/03 07:46:35;;;;;;;9.10;2.30;;;16.10;80.50;;;;;;4992397;28;20213;-66
2023/07/03 07:49:03;;;;;;;10.57;2.17;;;16.00;80.60;;;;;;4994281;28;20229;-66
2023/07/03 07:51:31;;;;;;;11.37;2.33;;;15.90;80.80;;;;;;4985836;28;20214;-66
2023/07/03 07:53:58;;;;;;;14.00;3.23;;;15.90;81.00;;;;;;4992902;28;20517;-66
2023/07/03 07:56:27;;;;;;;9.93;3.77;;;15.80;81.40;;;;;;4993297;28;20200;-66
2023/07/03 07:58:55;;;;;;;11.13;3.77;;;15.80;81.70;;;;;;4991500;28;20185;-68
2023/07/03 08:01:22;;;;;;;7.97;3.10;;;15.70;81.90;;;;;;4993397;28;20665;-68
2023/07/03 08:03:49;;;;;;;6.80;2.37;;;15.70;82.10;;;;;;4992466;28;20182;-68
2023/07/03 08:06:18;;;;;;;7.00;2.23;;;15.70;82.50;;;;;;4995745;28;20278;-66
2023/07/03 08:08:45;;;;;;;10.83;2.40;;;15.70;82.70;;;;;;4986832;28;20597;-66
2023/07/03 08:11:14;;;;;;;8.43;3.43;;;15.70;82.90;;;;;;4993097;28;20600;-66
2023/07/03 08:13:42;;;;;;;7.47;2.70;;;15.70;83.10;;;;;;4991708;28;20176;-67
2023/07/03 08:16:11;;;;;;;6.17;2.70;;;15.60;83.10;;;;;;4992806;28;20180;-67
2023/07/03 08:18:39;;;;;;;8.30;2.50;;;15.60;83.30;;;;;;4990689;28;20223;-67
2023/07/03 08:21:06;;;;;;;8.13;2.83;;;15.60;83.20;;;;;;4989084;28;20178;-67
2023/07/03 08:23:33;;;;;;;6.23;2.50;;;15.60;83.20;;;;;;4990833;28;20253;-66
2023/07/03 08:26:02;;;;;;;6.87;2.63;;;15.60;83.20;;;;;;4993304;28;20201;-67
2023/07/03 08:28:30;;;;;;;8.00;3.20;;;15.60;83.30;;;;;;4989794;28;20241;-66
2023/07/03 08:30:58;;;;;;;9.60;3.17;;;15.70;83.30;;;;;;4992658;28;20194;-68
2023/07/03 08:33:25;;;;;;;10.57;4.40;;;15.70;83.20;;;;;;4988738;28;20190;-66
2023/07/03 08:35:53;;;;;;;10.73;3.70;;;15.70;83.20;;;;;;4989202;28;20186;-66
2023/07/03 08:38:21;;;;;;;9.27;3.27;;;15.70;83.40;;;;;;4985412;28;20268;-66
2023/07/03 08:40:54;;;;;;;6.80;3.50;;;15.70;83.30;;;;;;4992647;28;20331;-66
2023/07/03 08:43:21;;;;;;;7.10;3.90;;;15.80;83.30;;;;;;4989297;28;20675;-66
2023/07/03 08:45:50;;;;;;;10.50;4.13;;;15.70;83.30;;;;;;4991923;28;20704;-67
2023/07/03 08:48:24;;;;;;;9.30;3.93;;;15.70;83.30;;;;;;4989867;28;20599;-67
2023/07/03 08:51:03;;;;;;;8.97;4.40;;;15.80;83.20;;;;;;4990329;28;20325;-67
2023/07/03 08:53:39;;;;;;;11.07;4.40;;;15.70;83.10;;;;;;4987809;28;20581;-66
2023/07/03 08:56:16;;;;;;;8.93;4.33;;;15.70;83.20;;;;;;4991137;28;20508;-66
2023/07/03 08:58:45;;;;;;;11.77;4.67;;;15.70;83.20;;;;;;4991470;28;20284;-67
2023/07/03 09:01:41;;;;;;;10.60;4.20;;;15.70;83.40;;;;;;4991757;28;20202;-66
2023/07/03 09:04:44;;;;;;;6.17;3.70;;;15.70;83.20;;;;;;4992967;28;20189;-67
2023/07/03 09:07:19;;;;;;;8.87;3.80;;;15.60;83.60;;;;;;4895686;29;20651;-66
2023/07/03 09:10:14;;;;;;;10.40;3.70;;;15.60;83.80;;;;;;4975804;28;20198;-67
2023/07/03 09:12:50;;;;;;;7.90;3.80;;;15.50;84.30;;;;;;4989035;28;20222;-67
2023/07/03 09:15:29;;;;;;;7.83;4.23;;;15.50;84.60;;;;;;4988101;28;20292;-67
2023/07/03 09:17:59;;;;;;;6.80;3.60;;;15.40;84.80;;;;;;4991590;28;20591;-67
2023/07/03 09:20:28;;;;;;;8.10;3.83;;;15.40;85.10;;;;;;4990790;28;20666;-67
2023/07/03 09:23:08;;;;;;;7.60;4.30;;;15.30;85.40;;;;;;4991016;28;20192;-70
2023/07/03 09:25:52;;;;;;;8.00;4.23;;;15.30;85.40;;;;;;4991212;28;20287;-69
2023/07/03 09:28:20;;;;;;;19.40;4.63;;;15.30;85.40;;;;;;4991065;28;20202;-67
2023/07/03 09:30:48;;;;;;;12.40;4.73;;;15.30;85.30;;;;;;4993805;28;20186;-68
2023/07/03 09:36:41;;;;;;;12.27;4.27;;;15.40;85.60;;;;;;4983761;28;20632;-64
2023/07/03 09:39:15;;;;;;;12.37;5.00;;;15.30;85.40;;;;;;4986409;28;20200;-66
2023/07/03 09:41:42;;;;;;;8.57;4.93;;;15.30;85.70;;;;;;4985706;28;20189;-65
2023/07/03 09:44:14;;;;;;;10.73;5.20;;;15.30;86.00;;;;;;4990200;28;20189;-67
2023/07/03 09:46:45;;;;;;;9.40;5.90;;;15.30;86.30;;;;;;4998159;28;20204;-65
2023/07/03 09:49:24;;;;;;;10.07;5.43;;;15.30;86.40;;;;;;4984725;28;20565;-67
2023/07/03 09:51:53;;;;;;;7.70;6.27;;;15.30;86.90;;;;;;4986982;28;20210;-65
2023/07/03 09:54:23;;;;;;;14.27;7.17;;;15.30;87.20;;;;;;4990827;28;20188;-66
2023/07/03 09:56:51;;;;;;;8.83;6.97;;;15.20;87.40;;;;;;4984833;28;20252;-66
2023/07/03 09:59:19;;;;;;;11.90;7.37;;;15.20;87.90;;;;;;4997432;28;20184;-64
2023/07/03 10:01:48;;;;;;;13.30;9.10;;;15.10;88.30;;;;;;4987794;28;20273;-66
2023/07/03 10:04:17;;;;;;;14.47;10.43;;;15.00;88.50;;;;;;4985764;28;20586;-66
2023/07/03 10:07:05;;;;;;;13.30;8.90;;;15.00;88.80;;;;;;4988389;28;20221;-65
2023/07/03 10:09:35;;;;;;;15.53;10.20;;;15.00;89.20;;;;;;4989430;28;20761;-66
2023/07/03 10:12:20;;;;;;;15.27;12.47;;;15.00;89.50;;;;;;4983676;28;20189;-67
2023/07/03 10:15:02;;;;;;;16.53;13.80;;;15.00;89.60;;;;;;4989971;28;20214;-66
2023/07/03 10:17:39;;;;;;;19.60;14.87;;;15.00;89.80;;;;;;4973235;28;20213;-67
2023/07/03 10:20:11;;;;;;;17.33;13.90;;;15.00;90.10;;;;;;4984488;28;20715;-65
2023/07/03 10:22:43;;;;;;;20.90;16.40;;;15.00;90.20;;;;;;4988767;28;20194;-66
2023/07/03 10:25:20;;;;;;;23.17;20.70;;;15.00;90.40;;;;;;4985549;28;20187;-65
2023/07/03 10:27:52;;;;;;;25.47;22.80;;;15.00;90.40;;;;;;4989161;28;20217;-67
2023/07/03 10:30:20;;;;;;;27.87;25.07;;;14.90;90.70;;;;;;4985269;28;20270;-66
2023/07/03 10:32:53;;;;;;;33.97;30.77;;;14.80;90.90;;;;;;4978303;28;20220;-65
2023/07/03 10:35:33;;;;;;;30.40;27.20;;;14.80;91.10;;;;;;4996713;28;20222;-66
2023/07/03 10:38:25;;;;;;;28.27;25.60;;;14.80;91.20;;;;;;5007665;28;20541;-66
2023/07/03 10:41:08;;;;;;;34.47;31.40;;;14.80;91.40;;;;;;5006066;28;20191;-66
2023/07/03 10:43:53;;;;;;;37.60;33.83;;;14.80;91.50;;;;;;5006347;28;20189;-67
2023/07/03 10:46:49;;;;;;;32.43;29.20;;;14.80;91.50;;;;;;5004247;28;20213;-65
2023/07/03 10:49:26;;;;;;;32.37;29.57;;;14.80;91.70;;;;;;5006209;28;20190;-65
2023/07/03 10:52:07;;;;;;;38.70;35.57;;;14.80;91.80;;;;;;5002207;28;20183;-67
2023/07/03 10:54:45;;;;;;;44.13;40.63;;;14.80;91.80;;;;;;5010302;28;20721;-67
2023/07/03 10:57:18;;;;;;;40.80;37.23;;;14.80;91.80;;;;;;5005040;28;20193;-66
2023/07/03 10:59:51;;;;;;;51.03;47.00;;;14.80;91.80;;;;;;5008534;28;20212;-65
2023/07/03 11:02:26;;;;;;;47.73;44.10;;;14.80;92.00;;;;;;5008272;28;20200;-67
2023/07/03 11:05:04;;;;;;;56.00;51.30;;;14.70;92.00;;;;;;5001891;28;20709;-66
2023/07/03 11:07:37;;;;;;;57.03;52.37;;;14.70;92.10;;;;;;5005987;28;20363;-66
2023/07/03 11:10:27;;;;;;;55.43;50.83;;;14.80;92.20;;;;;;5003856;28;20186;-67
2023/07/03 11:12:57;;;;;;;55.80;51.23;;;14.70;92.30;;;;;;5003596;28;20672;-67
2023/07/03 11:15:28;;;;;;;52.50;48.33;;;14.80;92.40;;;;;;5004565;28;20197;-66
2023/07/03 11:18:06;;;;;;;60.00;55.07;;;14.80;92.50;;;;;;5003104;28;20540;-66
2023/07/03 11:20:49;;;;;;;57.83;53.53;;;14.70;92.40;;;;;;5002618;28;20670;-66
2023/07/03 11:23:26;;;;;;;55.40;51.30;;;14.80;92.60;;;;;;4996981;28;20663;-66
2023/07/03 11:25:57;;;;;;;55.27;50.37;;;14.70;92.60;;;;;;5007259;28;20545;-67
2023/07/03 11:28:32;;;;;;;55.63;51.03;;;14.70;92.70;;;;;;5009640;28;20182;-66
2023/07/03 11:31:02;;;;;;;61.40;56.47;;;14.80;92.70;;;;;;5006852;28;20182;-66
2023/07/03 11:33:32;;;;;;;64.23;59.40;;;14.70;92.70;;;;;;5005806;28;20581;-66
2023/07/03 11:36:01;;;;;;;67.90;62.93;;;14.60;92.70;;;;;;5005208;28;20226;-65
2023/07/03 11:38:29;;;;;;;78.00;72.10;;;14.60;92.70;;;;;;5004517;28;20695;-68
2023/07/03 11:40:58;;;;;;;85.20;79.57;;;14.60;92.80;;;;;;5008451;28;20188;-67
2023/07/03 11:43:35;;;;;;;94.23;87.90;;;14.60;92.90;;;;;;5006494;28;20195;-69
2023/07/03 11:46:21;;;;;;;101.53;94.37;;;14.60;92.90;;;;;;5009072;28;20173;-67
2023/07/03 11:48:55;;;;;;;102.23;95.77;;;14.60;93.00;;;;;;5002389;28;20185;-66
2023/07/03 11:51:37;;;;;;;109.20;102.03;;;14.60;93.00;;;;;;5008911;28;20187;-66
2023/07/03 11:54:22;;;;;;;113.03;105.33;;;14.60;93.00;;;;;;5000378;28;20193;-66
2023/07/03 11:57:10;;;;;;;112.60;105.23;;;14.60;93.20;;;;;;5004379;28;20186;-67
2023/07/03 11:59:43;;;;;;;117.07;109.47;;;14.60;93.10;;;;;;5006013;28;20190;-67
2023/07/03 12:02:16;;;;;;;115.27;107.33;;;14.60;93.20;;;;;;5011055;28;20185;-67
2023/07/03 12:04:44;;;;;;;112.80;105.43;;;14.60;93.20;;;;;;5008395;28;20276;-66
2023/07/03 12:07:31;;;;;;;98.30;91.57;;;14.60;93.20;;;;;;5007140;28;20580;-67
2023/07/03 12:10:19;;;;;;;100.57;94.10;;;14.50;93.20;;;;;;5003626;28;20251;-66
2023/07/03 12:13:37;;;;;;;108.77;101.63;;;14.50;93.30;;;;;;4999129;28;20224;-66
2023/07/03 12:16:12;;;;;;;133.10;124.73;;;14.50;93.30;;;;;;4965074;28;20197;-66
2023/07/03 12:18:40;;;;;;;120.23;113.17;;;14.50;93.40;;;;;;5008028;28;20185;-67
2023/07/03 12:21:07;;;;;;;131.00;123.13;;;14.50;93.40;;;;;;5012533;28;20182;-67
2023/07/03 12:23:41;;;;;;;131.53;123.20;;;14.50;93.50;;;;;;5009295;28;20204;-66
2023/07/03 12:26:11;;;;;;;135.93;127.43;;;14.50;93.50;;;;;;5010269;28;20177;-66
2023/07/03 12:28:41;;;;;;;130.77;122.47;;;14.50;93.50;;;;;;5007642;28;20193;-66
2023/07/03 12:31:20;;;;;;;126.73;118.67;;;14.50;93.50;;;;;;5004577;28;20182;-66
2023/07/03 12:33:58;;;;;;;136.10;127.63;;;14.50;93.50;;;;;;5001842;28;20193;-66
2023/07/03 12:36:31;;;;;;;143.17;134.73;;;14.50;93.50;;;;;;5007940;28;20741;-66
2023/07/03 12:39:00;;;;;;;147.30;138.93;;;14.50;93.50;;;;;;5002614;28;21020;-66
2023/07/03 12:41:33;;;;;;;150.03;141.70;;;14.40;93.50;;;;;;5008095;28;20702;-66
2023/07/03 12:44:02;;;;;;;157.73;148.83;;;14.50;93.50;;;;;;5006705;28;20185;-66
2023/07/03 12:46:45;;;;;;;153.00;144.33;;;14.30;93.50;;;;;;5004314;28;20315;-66
2023/07/03 12:49:15;;;;;;;159.27;149.77;;;14.30;93.50;;;;;;5003050;28;20194;-66
2023/07/03 12:51:49;;;;;;;163.23;153.60;;;14.30;93.50;;;;;;5005614;28;20212;-67
2023/07/03 12:54:16;;;;;;;162.80;153.53;;;14.30;93.50;;;;;;5005783;28;20190;-66
2023/07/03 12:56:44;;;;;;;161.43;151.60;;;14.30;93.60;;;;;;5006742;28;20189;-66